Portada
METAR-TAF:

METAR-TAF

Aeroports :

Aeroport de Gran Canària

Gran Canària, Espanya

latitud: 27-56N, longitud: 015-23W, altitud: 23 m

Observació

L'informe es va fer fa 36 minuts, a les 06:30 UTC
Vent 5 kt del Oest/Nord-Oest
Temperatura 17°C
Humitat 82%
Pressió 1015 hPa
Visibilitat 10 km o més
sense núvols per sota de 1500 mi sense presència de cumulonimbus.

METAR: GCLP 030630Z 29005KT CAVOK 17/14 Q1015 NOSIG

Hora: 07:06 (07:06 UTC)

Pronòstic

L'informe es va fer fa 5 hores i 6 minuts, a les 02:00 UTC
Pronòstic vàlid del 03 a les 03 UTC al 04 a les 03 UTC
Vent 6 kt del Oest/Nord-Oest
Visibilitat 10 km o més
Escasses núvols a una alçada de 3000 ft
Probabilitat 30% :
Temporalment
l' 03 a les 10 UTC al 03 a les 14 UTC
Vent 10 kt del Sud

TAF: GCLP 030200Z 0303/0403 29006KT 9999 FEW030 TX24/0314Z TN16/0307Z PROB30 TEMPO 0310/0314 17010KT

Observacions i pronòstics meteorològics de més de 4000 aeroports (METAR i TAF).

Les estacions disponibles són els punts grocs i vermells al mapa.

Posi el ratolí al punt desitjat per veure el nom de l'estació.

Feu clic per veure les observacions i els pronòstics meteorològics.

Per canviar el mapa: feu clic els botons verds amb una creu de color negre per apropar; al botó verd amb un guió per allunyar la imatge; o en les fletxes verdes per a mapes adjacents.


METAR-TAF: